createdAt,value
2022-08-29T00:00:17.997Z,2.30
2022-08-29T00:02:50.273Z,2.72
2022-08-29T00:05:19.940Z,2.40
2022-08-29T00:07:51.674Z,2.22
2022-08-29T00:10:18.610Z,2.28
2022-08-29T00:12:45.465Z,2.05
2022-08-29T00:15:12.990Z,2.40
2022-08-29T00:17:40.002Z,2.40
2022-08-29T00:20:09.915Z,2.22
2022-08-29T00:22:36.868Z,2.13
2022-08-29T00:25:05.622Z,2.60
2022-08-29T00:27:33.269Z,2.17
2022-08-29T00:30:00.193Z,2.05
2022-08-29T00:32:28.508Z,2.20
2022-08-29T00:34:55.106Z,2.38
2022-08-29T00:37:21.736Z,2.10
2022-08-29T00:39:50.629Z,2.75
2022-08-29T00:42:17.733Z,2.40
2022-08-29T00:44:44.345Z,2.15
2022-08-29T00:47:12.724Z,2.08
2022-08-29T00:49:48.761Z,2.35
2022-08-29T00:52:25.105Z,2.40
2022-08-29T00:54:53.724Z,2.03
2022-08-29T00:57:22.031Z,2.08
2022-08-29T00:59:50.001Z,2.30
2022-08-29T01:02:17.217Z,2.10
2022-08-29T01:04:44.556Z,2.10
2022-08-29T01:07:11.637Z,2.38
2022-08-29T01:09:41.164Z,2.40
2022-08-29T01:12:17.230Z,1.90
2022-08-29T01:14:51.254Z,1.98
2022-08-29T01:17:25.686Z,2.00
2022-08-29T01:20:00.661Z,2.17
2022-08-29T01:22:47.350Z,2.17
2022-08-29T01:25:24.015Z,2.15
2022-08-29T01:28:35.812Z,2.33
2022-08-29T01:31:13.083Z,2.10
2022-08-29T01:33:50.521Z,2.13
2022-08-29T01:36:20.246Z,2.28
2022-08-29T01:38:47.234Z,2.60
2022-08-29T01:41:14.504Z,1.90
2022-08-29T01:43:48.655Z,2.45
2022-08-29T01:46:17.762Z,2.40
2022-08-29T01:48:45.348Z,2.00
2022-08-29T01:51:13.836Z,2.00
2022-08-29T01:53:41.300Z,2.40
2022-08-29T01:56:12.797Z,2.35
2022-08-29T01:58:39.429Z,2.10
2022-08-29T02:01:07.116Z,2.17
2022-08-29T02:03:33.902Z,2.05
2022-08-29T02:06:02.017Z,1.95
2022-08-29T02:08:29.594Z,2.30
2022-08-29T02:10:56.548Z,2.08
2022-08-29T02:13:24.394Z,2.03
2022-08-29T02:15:51.823Z,1.75
2022-08-29T02:18:18.424Z,2.33
2022-08-29T02:20:46.105Z,1.77
2022-08-29T02:23:29.829Z,2.17
2022-08-29T02:25:57.432Z,2.05
2022-08-29T02:28:24.345Z,2.08
2022-08-29T02:30:55.854Z,1.90
2022-08-29T02:33:23.885Z,2.00
2022-08-29T02:35:50.844Z,2.00
2022-08-29T02:38:17.891Z,2.08
2022-08-29T02:40:45.412Z,2.28
2022-08-29T02:43:12.632Z,1.95
2022-08-29T02:45:41.193Z,1.80
2022-08-29T02:48:08.837Z,1.88
2022-08-29T02:50:35.869Z,2.00
2022-08-29T02:53:02.552Z,1.98
2022-08-29T02:55:29.241Z,1.92
2022-08-29T02:57:55.857Z,1.85
2022-08-29T03:00:25.379Z,2.00
2022-08-29T03:02:52.990Z,1.88
2022-08-29T03:05:22.009Z,1.65
2022-08-29T03:07:50.932Z,2.22
2022-08-29T03:10:20.036Z,1.83
2022-08-29T03:12:47.795Z,1.80
2022-08-29T03:15:14.481Z,2.00
2022-08-29T03:17:41.265Z,1.90
2022-08-29T03:20:10.398Z,2.10
2022-08-29T03:22:39.630Z,2.20
2022-08-29T03:25:08.053Z,2.10
2022-08-29T03:27:35.305Z,2.30
2022-08-29T03:30:05.035Z,1.90
2022-08-29T03:32:32.437Z,2.10
2022-08-29T03:34:59.050Z,1.98
2022-08-29T03:37:27.061Z,1.90
2022-08-29T03:39:54.504Z,1.80
2022-08-29T03:42:21.479Z,2.30
2022-08-29T03:44:48.180Z,2.05
2022-08-29T03:47:15.020Z,1.77
2022-08-29T03:49:41.645Z,1.90
2022-08-29T03:52:11.383Z,1.70
2022-08-29T03:54:38.363Z,1.92
2022-08-29T03:57:06.528Z,1.80
2022-08-29T03:59:33.887Z,2.00
2022-08-29T04:02:00.609Z,1.90
2022-08-29T04:04:45.928Z,1.70
2022-08-29T04:07:17.320Z,1.90
2022-08-29T04:09:44.257Z,1.90
2022-08-29T04:12:12.240Z,1.88
2022-08-29T04:14:40.162Z,1.70
2022-08-29T04:17:10.105Z,1.92
2022-08-29T04:19:36.889Z,1.85
2022-08-29T04:22:05.075Z,2.03
2022-08-29T04:24:33.548Z,1.70
2022-08-29T04:27:00.536Z,1.73
2022-08-29T04:29:27.553Z,1.90
2022-08-29T04:31:54.733Z,1.90
2022-08-29T04:34:21.403Z,1.70
2022-08-29T04:36:48.325Z,1.83
2022-08-29T04:39:16.024Z,1.73
2022-08-29T04:41:43.385Z,1.83
2022-08-29T04:44:12.542Z,1.80
2022-08-29T04:46:39.335Z,1.90
2022-08-29T04:49:06.401Z,1.80
2022-08-29T04:51:34.328Z,2.00
2022-08-29T04:54:01.940Z,1.77
2022-08-29T04:56:28.586Z,1.73
2022-08-29T04:58:56.461Z,2.10
2022-08-29T05:01:24.348Z,2.15
2022-08-29T05:03:54.212Z,1.73
2022-08-29T05:06:22.470Z,3.17
2022-08-29T05:08:58.765Z,3.47
2022-08-29T05:11:28.475Z,3.83
2022-08-29T05:13:55.129Z,3.88
2022-08-29T05:16:21.793Z,3.90
2022-08-29T05:18:48.482Z,4.00
2022-08-29T05:21:25.922Z,4.13
2022-08-29T05:23:53.740Z,3.92
2022-08-29T05:26:20.408Z,3.60
2022-08-29T05:28:47.202Z,3.28
2022-08-29T05:31:14.569Z,3.47
2022-08-29T05:33:42.182Z,4.22
2022-08-29T05:36:09.265Z,3.95
2022-08-29T05:38:35.899Z,3.70
2022-08-29T05:41:02.605Z,3.70
2022-08-29T05:43:29.300Z,3.22
2022-08-29T05:46:04.308Z,3.20
2022-08-29T05:48:31.837Z,3.45
2022-08-29T05:50:58.534Z,3.40
2022-08-29T05:53:25.720Z,2.90
2022-08-29T05:55:53.201Z,3.90
2022-08-29T05:58:20.532Z,2.85
2022-08-29T06:00:48.248Z,3.05
2022-08-29T06:03:17.116Z,2.92
2022-08-29T06:05:49.573Z,3.00
2022-08-29T06:10:45.124Z,3.28
2022-08-29T06:13:14.313Z,3.15
2022-08-29T06:15:45.529Z,3.55
2022-08-29T06:18:12.585Z,3.13
2022-08-29T06:20:39.630Z,3.13
2022-08-29T06:23:06.665Z,2.72
2022-08-29T06:25:39.919Z,3.53
2022-08-29T06:28:07.366Z,3.15
2022-08-29T06:30:34.121Z,2.90
2022-08-29T06:33:01.610Z,2.90
2022-08-29T06:35:28.307Z,2.90
2022-08-29T06:37:55.181Z,2.80
2022-08-29T06:40:22.345Z,2.78
2022-08-29T06:42:49.000Z,3.15
2022-08-29T06:45:15.666Z,2.83
2022-08-29T06:47:43.277Z,2.65
2022-08-29T06:50:10.069Z,2.70
2022-08-29T06:52:36.699Z,2.45
2022-08-29T06:55:05.208Z,2.70
2022-08-29T06:57:31.813Z,2.88
2022-08-29T06:59:58.426Z,2.40
2022-08-29T07:02:25.242Z,2.95
2022-08-29T07:04:51.856Z,2.70
2022-08-29T07:07:18.459Z,2.45
2022-08-29T07:09:45.077Z,2.75
2022-08-29T07:12:11.792Z,2.53
2022-08-29T07:14:38.394Z,2.65
2022-08-29T07:17:05.940Z,2.10
2022-08-29T07:19:32.536Z,3.35
2022-08-29T07:22:00.166Z,2.97
2022-08-29T07:24:27.068Z,3.05
2022-08-29T07:26:53.741Z,2.60
2022-08-29T07:29:22.029Z,2.70
2022-08-29T07:31:49.362Z,2.40
2022-08-29T07:34:20.245Z,2.22
2022-08-29T07:36:47.102Z,2.60
2022-08-29T07:39:17.352Z,2.28
2022-08-29T07:41:44.598Z,2.95
2022-08-29T07:44:12.943Z,2.53
2022-08-29T07:46:39.720Z,2.28
2022-08-29T07:49:07.109Z,2.17
2022-08-29T07:51:34.762Z,2.30
2022-08-29T07:54:01.777Z,2.17
2022-08-29T07:56:37.836Z,2.80
2022-08-29T07:59:05.575Z,2.70
2022-08-29T08:01:32.333Z,2.80
2022-08-29T08:03:59.002Z,2.30
2022-08-29T08:06:27.233Z,2.30
2022-08-29T08:08:55.007Z,2.55
2022-08-29T08:11:23.016Z,2.50
2022-08-29T08:13:49.681Z,2.40
2022-08-29T08:16:19.747Z,2.90
2022-08-29T08:18:46.975Z,2.10
2022-08-29T08:21:14.160Z,2.30
2022-08-29T08:23:41.292Z,2.40
2022-08-29T08:26:09.522Z,2.10
2022-08-29T08:28:36.573Z,2.15
2022-08-29T08:31:06.689Z,2.30
2022-08-29T08:33:35.682Z,2.30
2022-08-29T08:36:04.034Z,2.13
2022-08-29T08:38:31.348Z,2.10
2022-08-29T08:41:10.602Z,2.35
2022-08-29T08:43:41.668Z,2.42
2022-08-29T08:46:08.366Z,2.30
2022-08-29T08:48:39.010Z,2.25
2022-08-29T08:51:26.909Z,2.25
2022-08-29T08:53:57.811Z,2.25
2022-08-29T08:56:46.703Z,2.13
2022-08-29T08:59:25.390Z,2.58
2022-08-29T09:02:14.522Z,2.53
2022-08-29T09:05:08.616Z,2.40
2022-08-29T09:08:03.123Z,2.42
2022-08-29T09:10:59.379Z,2.30
2022-08-29T09:14:04.988Z,2.13
2022-08-29T09:16:40.643Z,2.00
2022-08-29T09:19:10.779Z,2.20
2022-08-29T09:21:43.620Z,2.28
2022-08-29T09:24:19.174Z,1.92
2022-08-29T09:26:45.792Z,2.30
2022-08-29T09:29:13.783Z,2.03
2022-08-29T09:31:41.052Z,2.13
2022-08-29T09:34:18.838Z,1.98
2022-08-29T09:36:48.664Z,2.00
2022-08-29T09:39:28.433Z,2.20
2022-08-29T09:42:19.145Z,1.80
2022-08-29T09:44:57.739Z,2.22
2022-08-29T09:47:27.716Z,1.90
2022-08-29T09:50:08.496Z,2.10
2022-08-29T09:52:40.689Z,1.98
2022-08-29T09:55:42.438Z,2.38
2022-08-29T09:58:20.813Z,2.20
2022-08-29T10:01:06.553Z,2.05
2022-08-29T10:03:38.104Z,1.90
2022-08-29T10:06:14.081Z,1.70
2022-08-29T10:08:42.551Z,2.28
2022-08-29T10:11:23.694Z,2.03
2022-08-29T10:14:00.454Z,2.20
2022-08-29T10:16:27.072Z,2.15
2022-08-29T10:19:07.053Z,2.00
2022-08-29T10:22:04.789Z,1.80
2022-08-29T10:24:53.342Z,1.77
2022-08-29T10:28:00.909Z,1.85
2022-08-29T10:30:34.412Z,1.90
2022-08-29T10:33:15.782Z,2.03
2022-08-29T10:35:57.822Z,2.10
2022-08-29T10:38:39.533Z,1.95
2022-08-29T10:41:32.367Z,2.13
2022-08-29T10:44:37.264Z,1.92
2022-08-29T10:47:32.676Z,1.80
2022-08-29T10:50:43.760Z,1.98
2022-08-29T10:53:16.498Z,1.83
2022-08-29T10:55:57.578Z,1.90
2022-08-29T10:58:42.657Z,1.80
2022-08-29T11:01:41.927Z,1.95
2022-08-29T11:04:17.980Z,1.90
2022-08-29T11:06:53.728Z,1.88
2022-08-29T11:09:35.475Z,1.70
2022-08-29T11:12:05.161Z,1.70
2022-08-29T11:14:56.444Z,1.80
2022-08-29T11:17:26.140Z,1.95
2022-08-29T11:20:24.481Z,1.95
2022-08-29T11:22:58.073Z,1.85
2022-08-29T11:25:25.010Z,1.55
2022-08-29T11:28:04.081Z,1.88
2022-08-29T11:30:56.366Z,1.70
2022-08-29T11:36:48.109Z,1.88
2022-08-29T11:39:30.357Z,1.95
2022-08-29T11:42:06.020Z,1.70
2022-08-29T11:44:39.918Z,1.77
2022-08-29T11:47:31.231Z,2.00
2022-08-29T11:50:16.764Z,1.60
2022-08-29T11:53:03.027Z,2.00
2022-08-29T11:56:08.348Z,1.85
2022-08-29T11:58:35.940Z,1.70
2022-08-29T12:01:02.607Z,1.90
2022-08-29T12:03:35.490Z,1.92
2022-08-29T12:06:12.938Z,1.50
2022-08-29T12:08:46.771Z,1.60
2022-08-29T12:11:13.429Z,1.90
2022-08-29T12:13:46.018Z,1.85
2022-08-29T12:16:18.849Z,1.80
2022-08-29T12:18:48.997Z,1.88
2022-08-29T12:21:37.457Z,2.00
2022-08-29T12:24:27.248Z,1.70
2022-08-29T12:26:54.729Z,1.95
2022-08-29T12:29:41.078Z,2.15
2022-08-29T12:32:32.026Z,1.60
2022-08-29T12:35:26.330Z,1.80
2022-08-29T12:38:27.025Z,1.83
2022-08-29T12:41:39.246Z,2.00
2022-08-29T12:44:13.432Z,1.83
2022-08-29T12:46:42.721Z,1.90
2022-08-29T12:49:30.015Z,1.80
2022-08-29T12:52:01.647Z,1.80
2022-08-29T12:54:35.813Z,1.80
2022-08-29T12:57:05.688Z,1.80
2022-08-29T12:59:34.360Z,1.88
2022-08-29T13:02:01.669Z,1.88
2022-08-29T13:04:36.278Z,1.92
2022-08-29T13:07:08.747Z,1.77
2022-08-29T13:09:41.293Z,1.67
2022-08-29T13:12:17.627Z,1.90
2022-08-29T13:14:51.768Z,1.60
2022-08-29T13:17:20.690Z,1.80
2022-08-29T13:20:29.130Z,1.95
2022-08-29T13:23:28.817Z,1.60
2022-08-29T13:26:10.192Z,2.00
2022-08-29T13:28:56.157Z,1.88
2022-08-29T13:31:40.980Z,1.80
2022-08-29T13:34:07.560Z,1.83
2022-08-29T13:36:45.053Z,1.63
2022-08-29T13:39:17.949Z,1.65
2022-08-29T13:42:09.397Z,1.98
2022-08-29T13:45:00.983Z,1.70
2022-08-29T13:47:30.915Z,1.88
2022-08-29T13:50:04.851Z,1.83
2022-08-29T13:52:32.161Z,1.60
2022-08-29T13:54:59.454Z,1.90
2022-08-29T13:57:29.039Z,1.90
2022-08-29T13:59:56.468Z,2.00
2022-08-29T14:02:23.336Z,1.63
2022-08-29T14:04:50.096Z,2.00
2022-08-29T14:07:29.010Z,1.90
2022-08-29T14:09:56.254Z,1.67
2022-08-29T14:12:33.263Z,1.73
2022-08-29T14:15:05.394Z,1.77
2022-08-29T14:17:36.347Z,2.10
2022-08-29T14:20:04.088Z,1.55
2022-08-29T14:22:31.759Z,1.63
2022-08-29T14:24:58.413Z,1.60
2022-08-29T14:27:25.002Z,1.88
2022-08-29T14:29:51.718Z,1.98
2022-08-29T14:32:18.610Z,2.00
2022-08-29T14:34:51.182Z,1.85
2022-08-29T14:37:18.486Z,1.75
2022-08-29T14:39:45.122Z,1.52
2022-08-29T14:42:16.929Z,1.92
2022-08-29T14:44:43.635Z,2.10
2022-08-29T14:47:10.558Z,1.98
2022-08-29T14:49:37.348Z,1.60
2022-08-29T14:52:04.675Z,1.90
2022-08-29T14:54:31.686Z,2.00
2022-08-29T14:56:58.370Z,1.90
2022-08-29T14:59:25.553Z,2.00
2022-08-29T15:01:54.758Z,1.88
2022-08-29T15:04:35.374Z,2.13
2022-08-29T15:07:05.749Z,1.73
2022-08-29T15:09:32.566Z,1.70
2022-08-29T15:11:59.529Z,1.90
2022-08-29T15:14:26.125Z,1.65
2022-08-29T15:16:52.893Z,1.88
2022-08-29T15:22:07.613Z,1.67
2022-08-29T15:24:34.449Z,2.00
2022-08-29T15:27:01.288Z,2.10
2022-08-29T15:29:28.362Z,1.67
2022-08-29T15:31:57.189Z,1.73
2022-08-29T15:34:25.240Z,1.65
2022-08-29T15:36:53.060Z,1.80
2022-08-29T15:39:19.886Z,1.70
2022-08-29T15:41:46.665Z,1.73
2022-08-29T15:44:13.642Z,1.83
2022-08-29T15:46:50.561Z,1.60
2022-08-29T15:49:19.095Z,1.80
2022-08-29T15:51:46.401Z,1.90
2022-08-29T15:54:13.610Z,1.95
2022-08-29T15:56:40.345Z,2.03
2022-08-29T15:59:09.733Z,1.85
2022-08-29T16:01:37.353Z,1.85
2022-08-29T16:04:08.706Z,1.77
2022-08-29T16:06:36.332Z,1.90
2022-08-29T16:09:04.573Z,1.70
2022-08-29T16:11:42.076Z,1.92
2022-08-29T16:16:56.294Z,1.83
2022-08-29T16:19:22.969Z,1.50
2022-08-29T16:21:49.561Z,2.13
2022-08-29T16:24:16.209Z,1.70
2022-08-29T16:26:45.788Z,2.20
2022-08-29T16:29:12.954Z,2.40
2022-08-29T16:31:39.801Z,2.50
2022-08-29T16:34:06.647Z,2.45
2022-08-29T16:36:33.267Z,2.80
2022-08-29T16:38:59.854Z,2.38
2022-08-29T16:41:27.853Z,2.40
2022-08-29T16:43:55.084Z,3.03
2022-08-29T16:46:25.006Z,2.67
2022-08-29T16:48:52.119Z,2.50
2022-08-29T16:51:22.105Z,2.60
2022-08-29T16:53:49.036Z,2.13
2022-08-29T16:56:17.599Z,2.10
2022-08-29T16:59:03.885Z,2.25
2022-08-29T17:01:39.488Z,2.05
2022-08-29T17:04:10.571Z,2.60
2022-08-29T17:06:39.159Z,2.10
2022-08-29T17:09:08.888Z,2.10
2022-08-29T17:11:36.753Z,2.40
2022-08-29T17:14:03.820Z,2.47
2022-08-29T17:16:31.151Z,2.28
2022-08-29T17:18:58.106Z,2.25
2022-08-29T17:21:25.746Z,2.10
2022-08-29T17:23:52.835Z,2.38
2022-08-29T17:26:19.905Z,2.20
2022-08-29T17:28:48.046Z,2.00
2022-08-29T17:31:15.453Z,2.22
2022-08-29T17:33:43.072Z,2.30
2022-08-29T17:36:10.985Z,2.53
2022-08-29T17:38:41.191Z,2.25
2022-08-29T17:41:15.397Z,2.35
2022-08-29T17:43:45.609Z,2.05
2022-08-29T17:46:12.288Z,2.30
2022-08-29T17:48:39.579Z,2.38
2022-08-29T17:51:06.762Z,1.98
2022-08-29T17:53:33.922Z,2.38
2022-08-29T17:56:25.279Z,2.17
2022-08-29T17:58:52.030Z,2.40
2022-08-29T18:01:18.887Z,2.20
2022-08-29T18:03:45.636Z,1.95
2022-08-29T18:06:14.764Z,2.00
2022-08-29T18:08:41.929Z,1.95
2022-08-29T18:11:14.497Z,1.95
2022-08-29T18:13:41.625Z,2.17
2022-08-29T18:16:08.874Z,2.13
2022-08-29T18:18:35.624Z,1.90
2022-08-29T18:21:02.694Z,2.10
2022-08-29T18:23:29.800Z,2.05
2022-08-29T18:25:56.528Z,2.08
2022-08-29T18:28:23.141Z,1.98
2022-08-29T18:30:49.832Z,2.97
2022-08-29T18:33:16.477Z,3.40
2022-08-29T18:35:43.186Z,3.53
2022-08-29T18:38:10.376Z,3.00
2022-08-29T18:40:39.710Z,2.70
2022-08-29T18:43:07.224Z,2.85
2022-08-29T18:45:36.903Z,2.72
2022-08-29T18:48:04.360Z,2.90
2022-08-29T18:50:34.007Z,2.97
2022-08-29T18:53:08.393Z,2.63
2022-08-29T18:55:35.164Z,3.15
2022-08-29T18:58:01.994Z,3.10
2022-08-29T19:00:29.031Z,2.85
2022-08-29T19:02:57.923Z,3.10
2022-08-29T19:05:26.624Z,3.28
2022-08-29T19:07:53.856Z,2.90
2022-08-29T19:10:21.851Z,3.00
2022-08-29T19:12:49.373Z,2.80
2022-08-29T19:15:17.649Z,2.97
2022-08-29T19:17:44.307Z,3.55
2022-08-29T19:20:31.670Z,3.00
2022-08-29T19:22:58.610Z,3.00
2022-08-29T19:25:25.488Z,2.90
2022-08-29T19:27:52.276Z,3.05
2022-08-29T19:30:20.215Z,2.67
2022-08-29T19:32:46.878Z,3.00
2022-08-29T19:35:13.725Z,3.08
2022-08-29T19:37:43.792Z,3.00
2022-08-29T19:40:12.780Z,2.78
2022-08-29T19:42:39.844Z,3.08
2022-08-29T19:45:10.314Z,3.05
2022-08-29T19:47:37.732Z,3.22
2022-08-29T19:50:07.905Z,2.85
2022-08-29T19:52:34.788Z,3.33
2022-08-29T19:55:03.821Z,3.15
2022-08-29T19:57:30.578Z,2.55
2022-08-29T19:59:57.202Z,2.72
2022-08-29T20:02:25.923Z,2.80
2022-08-29T20:04:53.150Z,2.72
2022-08-29T20:07:20.050Z,3.17
2022-08-29T20:09:47.241Z,3.28
2022-08-29T20:12:14.508Z,3.10
2022-08-29T20:14:41.165Z,2.70
2022-08-29T20:17:09.401Z,2.83
2022-08-29T20:19:37.546Z,2.72
2022-08-29T20:22:07.000Z,2.60
2022-08-29T20:24:33.893Z,3.00
2022-08-29T20:27:01.300Z,2.63
2022-08-29T20:29:29.671Z,2.90
2022-08-29T20:31:58.569Z,3.35
2022-08-29T20:34:29.601Z,3.25
2022-08-29T20:37:09.016Z,3.30
2022-08-29T20:39:46.313Z,3.00
2022-08-29T20:42:18.064Z,3.03
2022-08-29T20:44:45.429Z,3.22
2022-08-29T20:47:18.264Z,2.90
2022-08-29T20:49:46.448Z,3.05
2022-08-29T20:52:14.996Z,3.30
2022-08-29T20:54:41.655Z,2.78
2022-08-29T20:57:14.776Z,3.17
2022-08-29T20:59:42.702Z,3.03
2022-08-29T21:02:10.147Z,2.75
2022-08-29T21:04:55.325Z,3.20
2022-08-29T21:07:22.107Z,3.42
2022-08-29T21:09:52.533Z,2.90
2022-08-29T21:12:20.297Z,3.05
2022-08-29T21:14:46.933Z,3.03
2022-08-29T21:17:14.908Z,2.75
2022-08-29T21:19:42.305Z,3.38
2022-08-29T21:22:10.734Z,3.55
2022-08-29T21:24:38.215Z,2.90
2022-08-29T21:27:05.318Z,2.70
2022-08-29T21:29:31.929Z,3.33
2022-08-29T21:31:58.534Z,3.03
2022-08-29T21:34:25.628Z,2.72
2022-08-29T21:36:52.418Z,3.10
2022-08-29T21:39:28.176Z,2.90
2022-08-29T21:41:56.554Z,3.08
2022-08-29T21:44:23.240Z,3.22
2022-08-29T21:46:49.914Z,2.60
2022-08-29T21:49:19.366Z,2.83
2022-08-29T21:51:46.799Z,3.00
2022-08-29T21:54:15.399Z,2.72
2022-08-29T21:56:42.881Z,3.00
2022-08-29T21:59:10.380Z,2.72
2022-08-29T22:01:40.572Z,2.90
2022-08-29T22:04:11.228Z,2.85
2022-08-29T22:06:54.420Z,2.80
2022-08-29T22:09:21.720Z,3.13
2022-08-29T22:11:48.472Z,2.78
2022-08-29T22:14:15.076Z,2.75
2022-08-29T22:16:41.762Z,2.80
2022-08-29T22:19:14.698Z,2.83
2022-08-29T22:21:47.924Z,3.22
2022-08-29T22:24:16.354Z,2.97
2022-08-29T22:26:43.922Z,2.90
2022-08-29T22:29:13.539Z,2.70
2022-08-29T22:31:42.531Z,3.10
2022-08-29T22:34:10.599Z,2.75
2022-08-29T22:36:37.256Z,2.60
2022-08-29T22:39:04.138Z,2.72
2022-08-29T22:41:31.158Z,2.40
2022-08-29T22:44:35.845Z,2.90
2022-08-29T22:46:45.465Z,2.88
2022-08-29T22:49:12.498Z,2.88
2022-08-29T22:51:39.179Z,2.70
2022-08-29T22:54:24.756Z,2.90
2022-08-29T22:56:54.382Z,2.55
2022-08-29T22:59:21.368Z,3.00
2022-08-29T23:01:48.142Z,2.72
2022-08-29T23:04:15.074Z,2.83
2022-08-29T23:06:41.696Z,2.67
2022-08-29T23:09:08.347Z,2.70
2022-08-29T23:11:35.761Z,2.70
2022-08-29T23:14:02.923Z,2.72
2022-08-29T23:16:32.979Z,2.80
2022-08-29T23:19:00.812Z,2.75
2022-08-29T23:21:28.549Z,2.80
2022-08-29T23:23:56.822Z,2.83
2022-08-29T23:26:23.741Z,3.05
2022-08-29T23:28:51.017Z,2.47
2022-08-29T23:31:19.607Z,2.75
2022-08-29T23:33:46.710Z,2.58
2022-08-29T23:36:13.368Z,2.63
2022-08-29T23:38:40.413Z,2.70
2022-08-29T23:41:07.276Z,2.70
2022-08-29T23:43:36.737Z,2.83
2022-08-29T23:46:04.540Z,2.63
2022-08-29T23:48:32.073Z,2.83
2022-08-29T23:50:59.334Z,2.53
2022-08-29T23:53:26.233Z,3.13
2022-08-29T23:55:53.245Z,2.80
2022-08-29T23:58:19.913Z,2.60
